createdAt,value
2022-12-05T00:02:39.549Z,71.30
2022-12-05T00:07:40.707Z,64.00
2022-12-05T00:12:46.505Z,74.80
2022-12-05T00:17:47.669Z,67.70
2022-12-05T00:22:48.756Z,64.40
2022-12-05T00:27:50.309Z,67.50
2022-12-05T00:32:51.553Z,70.50
2022-12-05T00:37:52.622Z,61.50
2022-12-05T00:42:53.777Z,64.20
2022-12-05T00:48:01.082Z,65.00
2022-12-05T00:53:02.393Z,63.90
2022-12-05T00:58:03.807Z,61.30
2022-12-05T01:03:04.930Z,57.20
2022-12-05T01:08:06.111Z,59.30
2022-12-05T01:13:07.291Z,61.60
2022-12-05T01:18:08.352Z,58.80
2022-12-05T01:23:09.511Z,65.70
2022-12-05T01:28:10.742Z,58.70
2022-12-05T01:33:12.178Z,60.20
2022-12-05T01:38:13.406Z,64.90
2022-12-05T01:43:16.620Z,66.30
2022-12-05T01:48:25.220Z,69.20
2022-12-05T01:53:27.721Z,64.60
2022-12-05T01:58:35.373Z,65.60
2022-12-05T02:03:37.379Z,62.00
2022-12-05T02:08:39.306Z,57.50
2022-12-05T02:14:19.610Z,63.30
2022-12-05T02:19:55.111Z,63.90
2022-12-05T02:25:21.638Z,67.50
2022-12-05T02:30:24.645Z,66.40
2022-12-05T02:35:36.113Z,68.30
2022-12-05T02:40:46.918Z,68.80
2022-12-05T02:45:53.941Z,69.40
2022-12-05T02:50:59.296Z,67.00
2022-12-05T02:56:01.170Z,62.90
2022-12-05T03:01:03.280Z,74.50
2022-12-05T03:06:11.270Z,68.90
2022-12-05T03:11:12.790Z,60.80
2022-12-05T03:16:28.158Z,64.10
2022-12-05T03:21:31.659Z,60.90
2022-12-05T03:26:56.424Z,56.50
2022-12-05T03:32:09.076Z,56.80
2022-12-05T03:37:18.785Z,61.50
2022-12-05T03:42:31.043Z,51.90
2022-12-05T03:47:41.798Z,52.80
2022-12-05T03:53:18.221Z,56.20
2022-12-05T03:58:26.132Z,52.80
2022-12-05T04:03:42.189Z,59.00
2022-12-05T04:08:50.827Z,58.70
2022-12-05T04:13:56.415Z,61.70
2022-12-05T04:19:51.175Z,57.40
2022-12-05T04:25:14.125Z,56.40
2022-12-05T04:30:29.493Z,53.90
2022-12-05T04:35:41.114Z,62.20
2022-12-05T04:41:12.537Z,58.20
2022-12-05T04:46:17.699Z,52.50
2022-12-05T04:51:23.446Z,58.40
2022-12-05T04:56:28.572Z,56.70
2022-12-05T05:01:29.796Z,51.80
2022-12-05T05:06:31.404Z,56.20
2022-12-05T05:11:34.653Z,53.50
2022-12-05T05:16:39.318Z,61.60
2022-12-05T05:21:42.327Z,58.40
2022-12-05T05:26:45.441Z,64.20
2022-12-05T05:31:46.664Z,56.90
2022-12-05T05:36:52.498Z,63.10
2022-12-05T05:41:53.657Z,58.20
2022-12-05T05:46:55.035Z,67.20
2022-12-05T05:51:56.235Z,71.30
2022-12-05T05:56:57.349Z,69.30
2022-12-05T06:01:58.454Z,69.30
2022-12-05T06:06:59.532Z,66.70
2022-12-05T06:12:00.703Z,70.20
2022-12-05T06:17:01.889Z,72.90
2022-12-05T06:22:03.092Z,76.00
2022-12-05T06:27:04.722Z,76.50
2022-12-05T06:32:05.965Z,89.00
2022-12-05T06:37:07.551Z,82.60
2022-12-05T06:42:09.048Z,76.40
2022-12-05T06:47:10.433Z,75.20
2022-12-05T06:52:12.261Z,79.10
2022-12-05T06:57:14.036Z,92.10
2022-12-05T07:02:15.243Z,86.40
2022-12-05T07:07:16.407Z,82.00
2022-12-05T07:12:19.052Z,95.50
2022-12-05T07:17:21.588Z,95.00
2022-12-05T07:22:23.386Z,83.40
2022-12-05T07:27:27.732Z,88.10
2022-12-05T07:32:33.836Z,84.60
2022-12-05T07:37:35.093Z,87.60
2022-12-05T07:42:36.360Z,85.70
2022-12-05T07:47:37.571Z,82.90
2022-12-05T07:52:39.134Z,77.70
2022-12-05T07:57:40.230Z,79.00
2022-12-05T08:02:41.440Z,81.10
2022-12-05T08:07:42.926Z,86.30
2022-12-05T08:12:44.118Z,79.50
2022-12-05T08:17:45.301Z,75.60
2022-12-05T08:22:46.463Z,75.50
2022-12-05T08:27:47.726Z,66.10
2022-12-05T08:32:48.777Z,72.10
2022-12-05T08:37:50.332Z,72.80
2022-12-05T08:42:51.446Z,68.60
2022-12-05T08:47:52.560Z,71.60
2022-12-05T08:52:53.739Z,73.70
2022-12-05T08:57:54.896Z,76.20
2022-12-05T09:02:56.131Z,81.10
2022-12-05T09:07:58.802Z,101.30
2022-12-05T09:13:00.844Z,93.40
2022-12-05T09:18:05.064Z,65.60
2022-12-05T09:23:06.435Z,66.00
2022-12-05T09:28:08.102Z,65.30
2022-12-05T09:33:09.267Z,69.10
2022-12-05T09:38:10.321Z,65.90
2022-12-05T09:43:43.026Z,69.80
2022-12-05T09:48:44.487Z,64.40
2022-12-05T09:53:46.042Z,66.80
2022-12-05T09:58:53.292Z,74.00
2022-12-05T10:04:34.387Z,77.80
2022-12-05T10:09:55.387Z,73.40
2022-12-05T10:15:15.488Z,66.60
2022-12-05T10:20:24.435Z,70.20
2022-12-05T10:25:27.127Z,70.60
2022-12-05T10:30:31.660Z,71.20
2022-12-05T10:35:35.384Z,77.10
2022-12-05T10:40:39.762Z,66.20
2022-12-05T10:45:46.311Z,60.60
2022-12-05T10:50:59.341Z,105.30
2022-12-05T10:56:29.870Z,67.70
2022-12-05T11:01:22.236Z,78.50
2022-12-05T11:06:27.498Z,78.30
2022-12-05T11:11:32.757Z,66.30
2022-12-05T11:16:37.398Z,72.50
2022-12-05T11:21:42.704Z,78.50
2022-12-05T11:26:45.148Z,77.20
2022-12-05T11:31:51.635Z,87.70
2022-12-05T11:36:57.838Z,94.60
2022-12-05T11:41:58.829Z,79.30
2022-12-05T11:47:17.253Z,89.50
2022-12-05T11:52:38.928Z,80.00
2022-12-05T11:57:56.960Z,81.00
2022-12-05T12:03:17.821Z,87.50
2022-12-05T12:08:28.611Z,86.80
2022-12-05T12:13:39.447Z,89.50
2022-12-05T12:18:53.117Z,95.60
2022-12-05T12:24:07.588Z,92.30
2022-12-05T12:29:35.639Z,94.40
2022-12-05T12:35:09.178Z,94.00
2022-12-05T12:40:23.038Z,115.30
2022-12-05T12:45:54.289Z,99.00
2022-12-05T12:50:59.468Z,100.00
2022-12-05T12:56:18.329Z,129.60
2022-12-05T13:01:52.731Z,103.40
2022-12-05T13:07:03.339Z,107.60
2022-12-05T13:12:10.144Z,128.50
2022-12-05T13:17:19.049Z,147.50
2022-12-05T13:22:22.722Z,133.60
2022-12-05T13:27:27.111Z,139.90
2022-12-05T13:32:35.559Z,124.70
2022-12-05T13:38:04.712Z,152.40
2022-12-05T13:43:06.214Z,123.60
2022-12-05T13:48:36.090Z,135.10
2022-12-05T13:53:43.167Z,127.00
2022-12-05T13:58:51.888Z,111.80
2022-12-05T14:03:58.420Z,103.60
2022-12-05T14:09:00.504Z,128.40
2022-12-05T14:14:04.822Z,114.80
2022-12-05T14:19:42.897Z,111.60
2022-12-05T14:25:11.331Z,113.60
2022-12-05T14:30:29.258Z,120.90
2022-12-05T14:35:45.420Z,120.90
2022-12-05T14:40:47.427Z,109.50
2022-12-05T14:45:51.913Z,112.30
2022-12-05T14:50:55.832Z,111.90
2022-12-05T14:55:59.848Z,114.90
2022-12-05T15:01:10.109Z,118.20
2022-12-05T15:06:14.975Z,127.90
2022-12-05T15:11:27.536Z,216.30
2022-12-05T15:16:32.890Z,348.60
2022-12-05T15:21:42.650Z,314.20
2022-12-05T15:26:55.607Z,165.60
2022-12-05T15:32:03.007Z,157.60
2022-12-05T15:37:21.764Z,131.00
2022-12-05T15:42:31.611Z,144.80
2022-12-05T15:47:32.618Z,145.60
2022-12-05T15:52:43.988Z,149.10
2022-12-05T15:57:50.339Z,183.60
2022-12-05T16:02:51.368Z,208.10
2022-12-05T16:07:53.822Z,232.10
2022-12-05T16:12:56.008Z,250.40
2022-12-05T16:18:02.389Z,266.10
2022-12-05T16:23:22.246Z,308.30
2022-12-05T16:28:23.285Z,255.10
2022-12-05T16:33:26.103Z,242.20
2022-12-05T16:38:31.943Z,234.30
2022-12-05T16:43:33.079Z,225.30
2022-12-05T16:48:35.258Z,218.20
2022-12-05T16:53:38.676Z,263.70
2022-12-05T16:58:39.791Z,273.20
2022-12-05T17:03:43.509Z,262.10
2022-12-05T17:08:44.603Z,309.00
2022-12-05T17:13:47.921Z,362.20
2022-12-05T17:18:49.213Z,344.40
2022-12-05T17:23:50.804Z,262.90
2022-12-05T17:28:52.212Z,259.50
2022-12-05T17:33:53.925Z,260.90
2022-12-05T17:38:55.072Z,243.20
2022-12-05T17:43:56.506Z,237.50
2022-12-05T17:48:57.995Z,198.80
2022-12-05T17:53:59.177Z,302.90
2022-12-05T17:59:04.246Z,226.80
2022-12-05T18:04:08.340Z,357.30
2022-12-05T18:09:09.487Z,301.00
2022-12-05T18:14:10.535Z,369.70
2022-12-05T18:19:11.628Z,258.30
2022-12-05T18:24:12.759Z,187.80
2022-12-05T18:29:13.769Z,229.00
2022-12-05T18:34:15.645Z,200.60
2022-12-05T18:39:16.689Z,237.10
2022-12-05T18:44:17.826Z,313.10
2022-12-05T18:49:18.945Z,263.60
2022-12-05T18:54:20.347Z,255.20
2022-12-05T18:59:22.074Z,246.90
2022-12-05T19:04:23.158Z,209.00
2022-12-05T19:09:27.040Z,232.90
2022-12-05T19:14:31.898Z,198.70
2022-12-05T19:19:33.001Z,212.40
2022-12-05T19:24:34.079Z,204.70
2022-12-05T19:29:35.266Z,197.10
2022-12-05T19:34:36.805Z,204.40
2022-12-05T19:39:37.820Z,200.90
2022-12-05T19:44:39.120Z,209.40
2022-12-05T19:49:40.179Z,221.30
2022-12-05T19:54:41.477Z,215.30
2022-12-05T19:59:42.975Z,198.90
2022-12-05T20:04:44.463Z,200.70
2022-12-05T20:09:45.493Z,191.30
2022-12-05T20:14:46.450Z,188.30
2022-12-05T20:19:47.555Z,175.00
2022-12-05T20:24:48.610Z,168.00
2022-12-05T20:29:49.744Z,178.60
2022-12-05T20:34:50.790Z,167.00
2022-12-05T20:39:51.835Z,191.30
2022-12-05T20:44:52.951Z,213.60
2022-12-05T20:49:53.975Z,215.10
2022-12-05T20:54:55.121Z,205.40
2022-12-05T20:59:56.172Z,226.10
2022-12-05T21:04:57.296Z,209.70
2022-12-05T21:10:03.316Z,218.00
2022-12-05T21:15:08.165Z,213.70
2022-12-05T21:20:09.675Z,205.90
2022-12-05T21:25:10.695Z,217.70
2022-12-05T21:30:11.835Z,201.80
2022-12-05T21:35:12.864Z,205.70
2022-12-05T21:40:13.909Z,200.10
2022-12-05T21:45:15.273Z,209.20
2022-12-05T21:50:16.859Z,233.30
2022-12-05T21:55:18.090Z,230.80
2022-12-05T22:00:19.410Z,227.00
2022-12-05T22:05:20.747Z,223.10
2022-12-05T22:10:21.993Z,232.20
2022-12-05T22:15:23.190Z,224.00
2022-12-05T22:20:24.246Z,220.10
2022-12-05T22:25:25.243Z,209.10
2022-12-05T22:30:26.339Z,203.90
2022-12-05T22:35:27.584Z,205.70
2022-12-05T22:40:28.632Z,226.20
2022-12-05T22:45:29.662Z,204.80
2022-12-05T22:50:30.817Z,209.50
2022-12-05T22:55:31.958Z,203.40
2022-12-05T23:00:33.048Z,212.20
2022-12-05T23:05:39.434Z,219.70
2022-12-05T23:10:40.675Z,200.30
2022-12-05T23:15:41.940Z,245.10
2022-12-05T23:20:43.038Z,217.90
2022-12-05T23:25:44.201Z,233.20
2022-12-05T23:30:45.272Z,219.30
2022-12-05T23:35:46.313Z,231.30
2022-12-05T23:41:00.735Z,255.70
2022-12-05T23:46:03.497Z,289.70
2022-12-05T23:51:05.743Z,285.40
2022-12-05T23:56:12.831Z,294.10
